Time;durP1;ratioP1;P1;durP2;ratioP2;P2;SDS_P1;SDS_P2;PMS_P1;PMS_P2;Temp;Humidity;BMP_temperature;BMP_pressure;BME280_temperature;BME280_humidity;BME280_pressure;Samples;Min_cycle;Max_cycle;Signal;HPM_P1;HPM_P2
2021/09/10 00:02:22;;;;;;;4.40;4.00;;;;;;;-142.25;100.00;58004.16;5054927;28;20037;-63
2021/09/10 00:04:48;;;;;;;5.72;3.40;;;;;;;-142.25;100.00;58004.16;5056311;28;20057;-63
2021/09/10 00:07:14;;;;;;;4.18;3.30;;;;;;;-142.25;100.00;58004.16;5054150;28;20056;-63
2021/09/10 00:09:40;;;;;;;4.18;3.75;;;;;;;-142.25;100.00;58004.16;5054555;28;20044;-65
2021/09/10 00:12:06;;;;;;;4.85;3.47;;;;;;;-142.25;100.00;58004.16;5052787;28;20029;-64
2021/09/10 00:14:31;;;;;;;8.32;4.00;;;;;;;-142.25;100.00;58004.16;5056106;28;20259;-65
2021/09/10 00:16:56;;;;;;;4.15;3.63;;;;;;;-142.25;100.00;58004.16;5053785;28;20056;-63
2021/09/10 00:19:22;;;;;;;4.88;3.72;;;;;;;-142.25;100.00;58004.16;5057270;28;20052;-66
2021/09/10 00:21:47;;;;;;;6.70;3.40;;;;;;;-142.25;100.00;58004.16;5054944;28;20181;-64
2021/09/10 00:24:13;;;;;;;6.00;3.60;;;;;;;-142.25;100.00;58004.16;5056280;28;20074;-65
2021/09/10 00:26:38;;;;;;;5.28;3.25;;;;;;;-142.25;100.00;58004.16;5055417;28;20444;-64
2021/09/10 00:29:04;;;;;;;7.67;4.27;;;;;;;-142.25;100.00;58004.16;5055972;28;20044;-62
2021/09/10 00:31:29;;;;;;;5.40;4.07;;;;;;;-142.25;100.00;58004.16;5061716;28;20032;-64
2021/09/10 00:33:54;;;;;;;4.33;3.83;;;;;;;-142.25;100.00;58004.16;5058771;28;20029;-65
2021/09/10 00:36:20;;;;;;;7.83;4.13;;;;;;;-142.25;100.00;58004.16;5056286;28;20445;-65
2021/09/10 00:38:45;;;;;;;7.27;3.67;;;;;;;-142.25;100.00;58004.16;5053890;28;20043;-64
2021/09/10 00:41:11;;;;;;;3.97;3.42;;;;;;;-142.25;100.00;58004.16;5056460;28;20036;-64
2021/09/10 00:43:36;;;;;;;6.97;3.70;;;;;;;-142.25;100.00;58004.16;5054307;28;20067;-64
2021/09/10 00:46:03;;;;;;;5.30;4.33;;;;;;;-142.25;100.00;58004.16;5053451;28;21014;-62
2021/09/10 00:48:28;;;;;;;4.67;3.80;;;;;;;-142.25;100.00;58004.16;5053686;28;20064;-65
2021/09/10 00:50:55;;;;;;;7.90;4.27;;;;;;;-142.25;100.00;58004.16;5054830;28;20103;-65
2021/09/10 00:53:21;;;;;;;5.70;3.70;;;;;;;-142.25;100.00;58004.16;5057089;28;20510;-64
2021/09/10 00:55:47;;;;;;;7.03;3.77;;;;;;;-142.25;100.00;58004.16;5055080;28;20051;-64
2021/09/10 00:58:13;;;;;;;5.27;3.60;;;;;;;-142.25;100.00;58004.16;5054496;28;20029;-63
2021/09/10 01:00:39;;;;;;;4.77;4.03;;;;;;;-142.25;100.00;58004.16;5054204;28;20124;-64
2021/09/10 01:03:04;;;;;;;5.20;4.07;;;;;;;-142.25;100.00;58004.16;5053449;28;20074;-63
2021/09/10 01:05:30;;;;;;;6.73;3.73;;;;;;;-142.25;100.00;58004.16;5053943;28;20483;-64
2021/09/10 01:07:58;;;;;;;5.70;3.70;;;;;;;-142.25;100.00;58004.16;5054625;28;20044;-64
2021/09/10 01:10:25;;;;;;;9.47;4.10;;;;;;;-142.25;100.00;58004.16;5056572;28;20037;-65
2021/09/10 01:12:51;;;;;;;4.07;3.67;;;;;;;-142.25;100.00;58004.16;5052870;28;20040;-65
2021/09/10 01:15:17;;;;;;;8.87;3.90;;;;;;;-142.25;100.00;58004.16;5054352;28;20122;-65
2021/09/10 01:17:43;;;;;;;6.30;3.77;;;;;;;-142.25;100.00;58004.16;5051938;28;20041;-64
2021/09/10 01:20:09;;;;;;;5.17;4.10;;;;;;;-142.25;100.00;58004.16;5054720;28;20623;-65
2021/09/10 01:22:36;;;;;;;8.27;4.03;;;;;;;-142.25;100.00;58004.16;5053919;28;20036;-64
2021/09/10 01:25:20;;;;;;;4.73;3.83;;;;;;;-142.25;100.00;58004.16;5053945;28;20024;-64
2021/09/10 01:27:53;;;;;;;4.40;3.80;;;;;;;-142.25;100.00;58004.16;5054661;28;20116;-64
2021/09/10 01:30:21;;;;;;;4.60;4.07;;;;;;;-142.25;100.00;58004.16;5054420;28;20559;-63
2021/09/10 01:32:47;;;;;;;6.23;4.10;;;;;;;-142.25;100.00;58004.16;5052654;28;20044;-65
2021/09/10 01:35:13;;;;;;;5.50;3.80;;;;;;;-142.25;100.00;58004.16;5054383;28;20063;-65
2021/09/10 01:37:39;;;;;;;5.53;3.80;;;;;;;-142.25;100.00;58004.16;5064288;28;20127;-66
2021/09/10 01:40:05;;;;;;;10.27;3.70;;;;;;;-142.25;100.00;58004.16;5059533;28;20088;-64
2021/09/10 01:42:31;;;;;;;4.60;4.10;;;;;;;-142.25;100.00;58004.16;5054367;28;20490;-64
2021/09/10 01:44:56;;;;;;;5.73;4.13;;;;;;;-142.25;100.00;58004.16;5053829;28;20043;-62
2021/09/10 01:47:22;;;;;;;4.17;3.77;;;;;;;-142.25;100.00;58004.16;5053287;28;20157;-62
2021/09/10 01:49:47;;;;;;;4.13;3.70;;;;;;;-142.25;100.00;58004.16;5050788;28;20029;-63
2021/09/10 01:52:13;;;;;;;5.63;3.63;;;;;;;-142.25;100.00;58004.16;5052474;28;20550;-64
2021/09/10 01:54:38;;;;;;;3.73;3.43;;;;;;;-142.25;100.00;58004.16;5053223;28;20036;-65
2021/09/10 01:57:04;;;;;;;4.17;3.47;;;;;;;-142.25;100.00;58004.16;5053448;28;20444;-65
2021/09/10 01:59:29;;;;;;;5.27;3.87;;;;;;;-142.25;100.00;58004.16;5052835;28;20033;-64
2021/09/10 02:01:55;;;;;;;4.53;3.70;;;;;;;-142.25;100.00;58004.16;5053699;28;20044;-64
2021/09/10 02:04:21;;;;;;;8.07;4.37;;;;;;;-142.25;100.00;58004.16;5052817;28;20080;-63
2021/09/10 02:06:47;;;;;;;5.10;4.23;;;;;;;-142.25;100.00;58004.16;5052618;28;20037;-63
2021/09/10 02:09:12;;;;;;;6.50;3.53;;;;;;;-142.25;100.00;58004.16;5084219;28;20443;-64
2021/09/10 02:11:38;;;;;;;5.27;3.20;;;;;;;-142.25;100.00;58004.16;5052883;28;20032;-63
2021/09/10 02:14:04;;;;;;;4.90;3.60;;;;;;;-142.25;100.00;58004.16;5054145;28;20415;-65
2021/09/10 02:16:30;;;;;;;4.80;3.93;;;;;;;-142.25;100.00;58004.16;5054975;28;20464;-62
2021/09/10 02:18:55;;;;;;;7.70;3.90;;;;;;;-142.25;100.00;58004.16;5053009;28;20033;-62
2021/09/10 02:21:21;;;;;;;4.07;3.67;;;;;;;-142.25;100.00;58004.16;5052431;28;21613;-61
2021/09/10 02:23:47;;;;;;;6.13;5.20;;;;;;;-142.25;100.00;58004.16;5052432;28;20498;-64
2021/09/10 02:26:12;;;;;;;5.40;3.53;;;;;;;-142.25;100.00;58004.16;5051473;28;20024;-65
2021/09/10 02:28:37;;;;;;;3.77;3.47;;;;;;;-142.25;100.00;58004.16;5052921;28;20495;-63
2021/09/10 02:31:03;;;;;;;4.97;3.80;;;;;;;-142.25;100.00;58004.16;5051837;28;20070;-63
2021/09/10 02:33:29;;;;;;;5.20;3.77;;;;;;;-142.25;100.00;58004.16;5052586;28;20307;-64
2021/09/10 02:35:55;;;;;;;5.27;4.10;;;;;;;-142.25;100.00;58004.16;5052412;28;20465;-62
2021/09/10 02:38:21;;;;;;;5.33;4.30;;;;;;;-142.25;100.00;58004.16;5053625;28;20036;-64
2021/09/10 02:40:47;;;;;;;5.07;3.80;;;;;;;-142.25;100.00;58004.16;5054576;28;20071;-64
2021/09/10 02:43:12;;;;;;;7.93;4.00;;;;;;;-142.25;100.00;58004.16;5051936;28;20556;-64
2021/09/10 02:45:38;;;;;;;3.67;3.20;;;;;;;-142.25;100.00;58004.16;5053089;28;20036;-64
2021/09/10 02:48:04;;;;;;;4.53;3.90;;;;;;;-142.25;100.00;58004.16;5052581;28;20420;-65
2021/09/10 02:50:29;;;;;;;3.90;3.53;;;;;;;-142.25;100.00;58004.16;5051945;28;20067;-63
2021/09/10 02:52:55;;;;;;;4.33;3.93;;;;;;;-142.25;100.00;58004.16;5051246;28;20572;-64
2021/09/10 02:55:20;;;;;;;4.47;4.07;;;;;;;-142.25;100.00;58004.16;5051288;28;20047;-64
2021/09/10 02:57:45;;;;;;;4.00;3.33;;;;;;;-142.25;100.00;58004.16;5053887;28;20059;-63
2021/09/10 03:00:11;;;;;;;6.13;4.00;;;;;;;-142.25;100.00;58004.16;5052460;28;20029;-69
2021/09/10 03:02:37;;;;;;;5.83;3.73;;;;;;;-142.25;100.00;58004.16;5052365;28;20139;-61
2021/09/10 03:05:04;;;;;;;4.80;3.60;;;;;;;-142.25;100.00;58004.16;5051566;28;20075;-63
2021/09/10 03:07:29;;;;;;;7.67;4.73;;;;;;;-142.25;100.00;58004.16;5053699;28;20047;-60
2021/09/10 03:09:55;;;;;;;6.90;3.73;;;;;;;-142.25;100.00;58004.16;5056211;28;20037;-63
2021/09/10 03:12:20;;;;;;;5.13;4.10;;;;;;;-142.25;100.00;58004.16;5055402;28;20098;-64
2021/09/10 03:14:45;;;;;;;4.07;3.67;;;;;;;-142.25;100.00;58004.16;5056450;28;20041;-63
2021/09/10 03:17:11;;;;;;;5.57;3.90;;;;;;;-142.25;100.00;58004.16;5055379;28;20048;-63
2021/09/10 03:19:36;;;;;;;3.90;3.50;;;;;;;-142.25;100.00;58004.16;5056284;28;20618;-63
2021/09/10 03:22:02;;;;;;;3.97;3.43;;;;;;;-142.25;100.00;58004.16;5054859;28;20039;-63
2021/09/10 03:24:27;;;;;;;4.07;3.23;;;;;;;-142.25;100.00;58004.16;5056658;28;20036;-63
2021/09/10 03:26:53;;;;;;;4.37;3.93;;;;;;;-142.25;100.00;58004.16;5055669;28;20021;-64
2021/09/10 03:29:18;;;;;;;3.50;3.10;;;;;;;-142.25;100.00;58004.16;5057015;28;20058;-65
2021/09/10 03:31:43;;;;;;;5.03;3.70;;;;;;;-142.25;100.00;58004.16;5056731;28;20067;-63
2021/09/10 03:34:09;;;;;;;6.50;4.10;;;;;;;-142.25;100.00;58004.16;5056325;28;20044;-65
2021/09/10 03:36:34;;;;;;;6.83;4.20;;;;;;;-142.25;100.00;58004.16;5055566;28;20330;-64
2021/09/10 03:39:00;;;;;;;4.37;3.80;;;;;;;-142.25;100.00;58004.16;5056051;28;20032;-63
2021/09/10 03:41:25;;;;;;;4.60;4.03;;;;;;;-142.25;100.00;58004.16;5056258;28;20032;-63
2021/09/10 03:43:53;;;;;;;4.53;3.77;;;;;;;-142.25;100.00;58004.16;5053898;28;20067;-64
2021/09/10 03:46:22;;;;;;;5.77;3.93;;;;;;;-142.25;100.00;58004.16;5054321;28;20055;-64
2021/09/10 03:48:49;;;;;;;4.77;3.67;;;;;;;-142.25;100.00;58004.16;5055307;28;20397;-64
2021/09/10 03:51:16;;;;;;;5.30;3.97;;;;;;;-142.25;100.00;58004.16;5056086;28;20044;-62
2021/09/10 03:53:41;;;;;;;6.87;4.23;;;;;;;-142.25;100.00;58004.16;5058966;28;20737;-65
2021/09/10 03:56:07;;;;;;;5.43;3.43;;;;;;;-142.25;100.00;58004.16;5066038;28;20037;-65
2021/09/10 03:58:33;;;;;;;6.70;3.70;;;;;;;-142.25;100.00;58004.16;5063791;28;20044;-65
2021/09/10 04:00:58;;;;;;;4.50;4.00;;;;;;;-142.25;100.00;58004.16;5055807;28;20130;-66
2021/09/10 04:03:24;;;;;;;5.73;4.10;;;;;;;-142.25;100.00;58004.16;5059477;28;20032;-64
2021/09/10 04:05:49;;;;;;;5.60;4.17;;;;;;;-142.25;100.00;58004.16;5054430;28;20501;-62
2021/09/10 04:08:15;;;;;;;5.77;4.17;;;;;;;-142.25;100.00;58004.16;5054974;28;20040;-63
2021/09/10 04:10:41;;;;;;;5.23;3.93;;;;;;;-142.25;100.00;58004.16;5054225;28;20464;-64
2021/09/10 04:13:07;;;;;;;4.57;3.90;;;;;;;-142.25;100.00;58004.16;5055811;28;20033;-64
2021/09/10 04:15:33;;;;;;;5.37;3.97;;;;;;;-142.25;100.00;58004.16;5054278;28;20129;-65
2021/09/10 04:17:58;;;;;;;6.00;3.97;;;;;;;-142.25;100.00;58004.16;5056127;28;20040;-65
2021/09/10 04:20:24;;;;;;;4.03;3.70;;;;;;;-142.25;100.00;58004.16;5055466;28;20103;-64
2021/09/10 04:22:49;;;;;;;4.23;3.53;;;;;;;-142.25;100.00;58004.16;5053692;28;20039;-64
2021/09/10 04:25:15;;;;;;;5.27;3.77;;;;;;;-142.25;100.00;58004.16;5055579;28;20040;-64
2021/09/10 04:27:40;;;;;;;5.23;4.30;;;;;;;-142.25;100.00;58004.16;5055218;28;20044;-65
2021/09/10 04:30:07;;;;;;;5.20;3.70;;;;;;;-142.25;100.00;58004.16;5055939;28;20040;-63
2021/09/10 04:32:33;;;;;;;5.33;3.57;;;;;;;-142.25;100.00;58004.16;5054741;28;20496;-65
2021/09/10 04:34:58;;;;;;;6.07;3.80;;;;;;;-142.25;100.00;58004.16;5055255;28;20039;-65
2021/09/10 04:37:24;;;;;;;5.40;4.03;;;;;;;-142.25;100.00;58004.16;5055263;28;20032;-65
2021/09/10 04:39:50;;;;;;;5.63;3.57;;;;;;;-142.25;100.00;58004.16;5053409;28;20813;-65
2021/09/10 04:42:15;;;;;;;6.27;4.27;;;;;;;-142.25;100.00;58004.16;5055928;28;20191;-64
2021/09/10 04:44:40;;;;;;;4.23;3.40;;;;;;;-142.25;100.00;58004.16;5058111;28;20028;-65
2021/09/10 04:47:06;;;;;;;4.50;3.90;;;;;;;-142.25;100.00;58004.16;5053811;28;20137;-64
2021/09/10 04:49:31;;;;;;;6.37;3.90;;;;;;;-142.25;100.00;58004.16;5055898;28;20029;-64
2021/09/10 04:51:57;;;;;;;7.50;4.00;;;;;;;-142.25;100.00;58004.16;5056448;28;20068;-66
2021/09/10 04:54:22;;;;;;;7.50;3.50;;;;;;;-142.25;100.00;58004.16;5056950;28;20526;-63
2021/09/10 04:56:48;;;;;;;4.90;3.67;;;;;;;-142.25;100.00;58004.16;5055761;28;20029;-64
2021/09/10 04:59:13;;;;;;;5.93;4.17;;;;;;;-142.25;100.00;58004.16;5058361;28;20033;-63
2021/09/10 05:01:39;;;;;;;5.97;4.13;;;;;;;-142.25;100.00;58004.16;5064332;28;20062;-64
2021/09/10 05:04:04;;;;;;;4.07;3.30;;;;;;;-142.25;100.00;58004.16;5090901;28;20044;-64
2021/09/10 05:06:30;;;;;;;4.80;3.23;;;;;;;-142.25;100.00;58004.16;5057319;28;20041;-65
2021/09/10 05:08:56;;;;;;;3.92;3.25;;;;;;;-142.25;100.00;58004.16;5055721;28;20036;-60
2021/09/10 05:11:22;;;;;;;4.70;3.73;;;;;;;-142.25;100.00;58004.16;5052913;28;20025;-62
2021/09/10 05:13:48;;;;;;;6.03;4.18;;;;;;;-142.25;100.00;58004.16;5054896;28;20121;-62
2021/09/10 05:16:13;;;;;;;4.73;3.70;;;;;;;-142.25;100.00;58004.16;5054450;28;20039;-63
2021/09/10 05:18:38;;;;;;;5.45;3.80;;;;;;;-142.25;100.00;58004.16;5055417;28;20404;-62
2021/09/10 05:21:05;;;;;;;3.90;3.42;;;;;;;-142.25;100.00;58004.16;5055304;28;20136;-59
2021/09/10 05:23:30;;;;;;;6.25;3.90;;;;;;;-142.25;100.00;58004.16;5056060;28;20037;-62
2021/09/10 05:25:56;;;;;;;3.90;3.22;;;;;;;-142.25;100.00;58004.16;5052945;28;20150;-61
2021/09/10 05:28:21;;;;;;;4.60;3.55;;;;;;;-142.25;100.00;58004.16;5051622;28;20463;-60
2021/09/10 05:30:46;;;;;;;4.53;4.07;;;;;;;-142.25;100.00;58004.16;5053531;28;20952;-60
2021/09/10 05:33:12;;;;;;;3.58;3.28;;;;;;;-142.25;100.00;58004.16;5053150;28;20036;-61
2021/09/10 05:35:37;;;;;;;5.10;4.03;;;;;;;-142.25;100.00;58004.16;5051665;28;20033;-61
2021/09/10 05:38:03;;;;;;;4.82;3.65;;;;;;;-142.25;100.00;58004.16;5052733;28;20349;-62
2021/09/10 05:40:28;;;;;;;5.75;4.35;;;;;;;-142.25;100.00;58004.16;5052684;28;20026;-61
2021/09/10 05:42:53;;;;;;;3.95;3.55;;;;;;;-142.25;100.00;58004.16;5053775;28;20029;-63
2021/09/10 05:45:19;;;;;;;4.90;4.18;;;;;;;-142.25;100.00;58004.16;5051784;28;20033;-60
2021/09/10 05:47:44;;;;;;;4.75;3.72;;;;;;;-142.25;100.00;58004.16;5054801;28;20138;-61
2021/09/10 05:50:10;;;;;;;3.92;3.47;;;;;;;-142.25;100.00;58004.16;5053293;28;20530;-61
2021/09/10 05:52:35;;;;;;;3.55;3.25;;;;;;;-142.25;100.00;58004.16;5053958;28;20178;-62
2021/09/10 05:55:01;;;;;;;6.13;3.67;;;;;;;-142.25;100.00;58004.16;5054840;28;20128;-60
2021/09/10 05:57:26;;;;;;;7.63;3.80;;;;;;;-142.25;100.00;58004.16;5052045;28;20539;-61
2021/09/10 05:59:51;;;;;;;5.55;4.05;;;;;;;-142.25;100.00;58004.16;5053106;28;20025;-63
2021/09/10 06:02:17;;;;;;;4.07;3.60;;;;;;;-142.25;100.00;58004.16;5052654;28;20044;-62
2021/09/10 06:04:43;;;;;;;5.97;4.40;;;;;;;-142.25;100.00;58004.16;5054295;28;20427;-62
2021/09/10 06:07:08;;;;;;;4.20;3.80;;;;;;;-142.25;100.00;58004.16;5052707;28;20064;-60
2021/09/10 06:09:34;;;;;;;6.10;3.88;;;;;;;-142.25;100.00;58004.16;5054728;28;20486;-62
2021/09/10 06:11:59;;;;;;;6.82;4.60;;;;;;;-142.25;100.00;58004.16;5052286;28;20113;-63
2021/09/10 06:14:25;;;;;;;7.93;4.07;;;;;;;-142.25;100.00;58004.16;5054516;28;20040;-64
2021/09/10 06:16:51;;;;;;;4.70;4.05;;;;;;;-142.25;100.00;58004.16;5053648;28;20090;-62
2021/09/10 06:19:16;;;;;;;6.10;4.35;;;;;;;-142.25;100.00;58004.16;5054294;28;20106;-59
2021/09/10 06:21:42;;;;;;;4.78;3.95;;;;;;;-142.25;100.00;58004.16;5053575;28;20028;-61
2021/09/10 06:24:07;;;;;;;6.07;4.00;;;;;;;-142.25;100.00;58004.16;5053551;28;20028;-62
2021/09/10 06:26:33;;;;;;;5.82;3.95;;;;;;;-142.25;100.00;58004.16;5052793;28;20060;-62
2021/09/10 06:28:58;;;;;;;9.80;4.72;;;;;;;-142.25;100.00;58004.16;5053018;28;20033;-63
2021/09/10 06:31:24;;;;;;;5.72;4.32;;;;;;;-142.25;100.00;58004.16;5052707;28;20036;-62
2021/09/10 06:33:49;;;;;;;3.97;3.28;;;;;;;-142.25;100.00;58004.16;5054210;28;20069;-64
2021/09/10 06:36:14;;;;;;;3.40;3.10;;;;;;;-142.25;100.00;58004.16;5051376;28;20090;-64
2021/09/10 06:38:40;;;;;;;9.73;3.90;;;;;;;-142.25;100.00;58004.16;5055048;28;20056;-62
2021/09/10 06:41:05;;;;;;;4.10;3.70;;;;;;;-142.25;100.00;58004.16;5053610;28;20683;-62
2021/09/10 06:43:31;;;;;;;6.35;3.38;;;;;;;-142.25;100.00;58004.16;5052929;28;20036;-63
2021/09/10 06:45:56;;;;;;;7.03;3.65;;;;;;;-142.25;100.00;58004.16;5052190;28;20037;-63
2021/09/10 06:48:21;;;;;;;8.55;5.15;;;;;;;-142.25;100.00;58004.16;5053859;28;20033;-60
2021/09/10 06:50:47;;;;;;;6.95;4.10;;;;;;;-142.25;100.00;58004.16;5052345;28;20087;-61
2021/09/10 06:53:12;;;;;;;4.75;3.60;;;;;;;-142.25;100.00;58004.16;5053939;28;20024;-62
2021/09/10 06:55:38;;;;;;;6.70;4.55;;;;;;;-142.25;100.00;58004.16;5053920;28;20035;-62
2021/09/10 06:58:03;;;;;;;5.50;3.70;;;;;;;-142.25;100.00;58004.16;5052786;28;20078;-64
2021/09/10 07:00:29;;;;;;;4.40;3.85;;;;;;;-142.25;100.00;58004.16;5054588;28;20036;-63
2021/09/10 07:02:54;;;;;;;9.05;4.30;;;;;;;-142.25;100.00;58004.16;5051121;28;20063;-63
2021/09/10 07:05:20;;;;;;;10.98;4.63;;;;;;;-142.25;100.00;58004.16;5052670;28;20057;-59
2021/09/10 07:07:45;;;;;;;5.80;4.20;;;;;;;-142.25;100.00;58004.16;5054211;28;20040;-64
2021/09/10 07:10:10;;;;;;;4.65;3.67;;;;;;;-142.25;100.00;58004.16;5052766;28;20036;-60
2021/09/10 07:12:36;;;;;;;8.52;4.50;;;;;;;-142.25;100.00;58004.16;5051717;28;20122;-61
2021/09/10 07:15:02;;;;;;;6.68;3.40;;;;;;;-142.25;100.00;58004.16;5052180;28;20602;-63
2021/09/10 07:17:28;;;;;;;6.82;3.67;;;;;;;-142.25;100.00;58004.16;5059405;28;20787;-63
2021/09/10 07:19:53;;;;;;;5.55;3.60;;;;;;;-142.25;100.00;58004.16;5059539;28;20035;-61
2021/09/10 07:22:19;;;;;;;5.93;3.50;;;;;;;-142.25;100.00;58004.16;5053858;28;20115;-61
2021/09/10 07:24:44;;;;;;;5.50;3.78;;;;;;;-142.25;100.00;58004.16;5055730;28;20099;-63
2021/09/10 07:27:09;;;;;;;4.30;3.88;;;;;;;-142.25;100.00;58004.16;5054759;28;20163;-64
2021/09/10 07:29:35;;;;;;;6.50;4.15;;;;;;;-142.25;100.00;58004.16;5053110;28;20136;-64
2021/09/10 07:32:00;;;;;;;4.95;4.05;;;;;;;-142.25;100.00;58004.16;5053563;28;20031;-64
2021/09/10 07:34:26;;;;;;;7.20;4.35;;;;;;;-142.25;100.00;58004.16;5085642;28;20966;-63
2021/09/10 07:36:52;;;;;;;7.55;4.28;;;;;;;-142.25;100.00;58004.16;5052897;28;20497;-63
2021/09/10 07:39:20;;;;;;;4.50;4.10;;;;;;;-142.25;100.00;58004.16;5053069;28;20021;-63
2021/09/10 07:41:46;;;;;;;6.20;5.60;;;;;;;-142.25;100.00;58004.16;5053816;28;20753;-64
2021/09/10 07:44:14;;;;;;;7.75;3.97;;;;;;;-142.25;100.00;58004.16;5054640;28;20452;-62
2021/09/10 07:46:41;;;;;;;5.70;4.07;;;;;;;-142.25;100.00;58004.16;5053949;28;20115;-64
2021/09/10 07:49:07;;;;;;;7.60;4.45;;;;;;;-142.25;100.00;58004.16;5054745;28;20040;-61
2021/09/10 07:51:33;;;;;;;7.38;5.05;;;;;;;-142.25;100.00;58004.16;5053100;28;20082;-63
2021/09/10 07:53:58;;;;;;;10.82;5.45;;;;;;;-142.25;100.00;58004.16;5052497;28;20420;-62
2021/09/10 07:56:23;;;;;;;7.30;4.60;;;;;;;-142.25;100.00;58004.16;5053781;28;20052;-61
2021/09/10 07:58:49;;;;;;;14.02;5.18;;;;;;;-142.25;100.00;58004.16;5057979;28;20145;-65
2021/09/10 08:01:14;;;;;;;7.10;4.90;;;;;;;-142.25;100.00;58004.16;5056428;28;20060;-58
2021/09/10 08:03:40;;;;;;;14.02;5.95;;;;;;;-142.25;100.00;58004.16;5057352;28;20056;-60
2021/09/10 08:06:05;;;;;;;5.57;4.60;;;;;;;-142.25;100.00;58004.16;5054931;28;20513;-56
2021/09/10 08:08:31;;;;;;;11.82;5.82;;;;;;;-142.25;100.00;58004.16;5053880;28;20471;-57
2021/09/10 08:10:56;;;;;;;9.90;5.38;;;;;;;-142.25;100.00;58004.16;5053579;28;20045;-59
2021/09/10 08:13:22;;;;;;;6.85;4.82;;;;;;;-142.25;100.00;58004.16;5057730;28;20496;-58
2021/09/10 08:15:47;;;;;;;9.23;5.88;;;;;;;-142.25;100.00;58004.16;5053587;28;20032;-60
2021/09/10 08:18:12;;;;;;;14.65;5.30;;;;;;;-142.25;100.00;58004.16;5054476;28;20039;-59
2021/09/10 08:20:38;;;;;;;7.53;4.70;;;;;;;-142.25;100.00;58004.16;5054299;28;20241;-60
2021/09/10 08:23:03;;;;;;;11.93;4.97;;;;;;;-142.25;100.00;58004.16;5054061;28;20050;-60
2021/09/10 08:25:29;;;;;;;12.55;5.78;;;;;;;-142.25;100.00;58004.16;5051939;28;20036;-59
2021/09/10 08:27:54;;;;;;;13.77;4.65;;;;;;;-142.25;100.00;58004.16;5055699;28;20033;-61
2021/09/10 08:30:20;;;;;;;9.57;5.07;;;;;;;-142.25;100.00;58004.16;5053289;28;20111;-59
2021/09/10 08:32:45;;;;;;;14.25;6.32;;;;;;;-142.25;100.00;58004.16;5085514;28;20033;-58
2021/09/10 08:35:11;;;;;;;15.35;5.95;;;;;;;-142.25;100.00;58004.16;5055226;28;20032;-60
2021/09/10 08:37:37;;;;;;;24.80;5.88;;;;;;;-142.25;100.00;58004.16;5053973;28;20037;-58
2021/09/10 08:40:03;;;;;;;11.57;4.95;;;;;;;-142.25;100.00;58004.16;5053201;28;20034;-61
2021/09/10 08:42:29;;;;;;;12.60;4.80;;;;;;;-142.25;100.00;58004.16;5053831;28;20128;-60
2021/09/10 08:44:54;;;;;;;9.25;4.13;;;;;;;-142.25;100.00;58004.16;5053972;28;20029;-58
2021/09/10 08:47:20;;;;;;;14.02;4.78;;;;;;;-142.25;100.00;58004.16;5052160;28;20094;-61
2021/09/10 08:49:45;;;;;;;14.35;5.07;;;;;;;-142.25;100.00;58004.16;5052245;28;20134;-60
2021/09/10 08:52:13;;;;;;;10.48;5.40;;;;;;;-142.25;100.00;58004.16;5052116;28;20392;-61
2021/09/10 08:54:38;;;;;;;7.82;3.88;;;;;;;-142.25;100.00;58004.16;5053701;28;20623;-61
2021/09/10 08:57:04;;;;;;;7.32;4.53;;;;;;;-142.25;100.00;58004.16;5053975;28;20035;-60
2021/09/10 08:59:29;;;;;;;7.68;4.20;;;;;;;-142.25;100.00;58004.16;5053923;28;20090;-59
2021/09/10 09:01:57;;;;;;;8.60;4.30;;;;;;;-142.25;100.00;58004.16;5053370;28;20033;-61
2021/09/10 09:04:28;;;;;;;9.45;4.32;;;;;;;-142.25;100.00;58004.16;5053985;28;20374;-61
2021/09/10 09:06:56;;;;;;;7.95;5.45;;;;;;;-142.25;100.00;58004.16;5054390;28;20480;-61
2021/09/10 09:09:39;;;;;;;10.32;5.75;;;;;;;-142.25;100.00;58004.16;5054692;28;20086;-59
2021/09/10 09:12:11;;;;;;;5.00;4.05;;;;;;;-142.25;100.00;58004.16;5055115;28;20044;-60
2021/09/10 09:14:55;;;;;;;7.18;3.80;;;;;;;-142.25;100.00;58004.16;5054397;28;20140;-56
2021/09/10 09:17:40;;;;;;;8.75;3.28;;;;;;;-142.25;100.00;58004.16;5052334;28;20147;-61
2021/09/10 09:20:21;;;;;;;12.77;3.38;;;;;;;-142.25;100.00;58004.16;5054334;28;20387;-58
2021/09/10 09:23:01;;;;;;;8.85;4.53;;;;;;;-142.25;100.00;58004.16;5053740;28;20534;-60
2021/09/10 09:25:48;;;;;;;11.30;4.53;;;;;;;-142.25;100.00;58004.16;5053265;28;20479;-59
2021/09/10 09:28:19;;;;;;;10.10;4.75;;;;;;;-142.25;100.00;58004.16;5053111;28;20137;-62
2021/09/10 09:30:46;;;;;;;11.48;4.03;;;;;;;-142.25;100.00;58004.16;5053157;28;20029;-58
2021/09/10 09:33:14;;;;;;;11.00;4.18;;;;;;;-142.25;100.00;58004.16;5056277;28;20033;-61
2021/09/10 09:35:41;;;;;;;5.43;4.90;;;;;;;-142.25;100.00;58004.16;5054809;28;20446;-62
2021/09/10 09:38:15;;;;;;;14.48;4.22;;;;;;;-142.25;100.00;58004.16;5055142;28;20116;-60
2021/09/10 09:40:40;;;;;;;11.20;3.80;;;;;;;-142.25;100.00;58004.16;5051350;28;20063;-59
2021/09/10 09:43:18;;;;;;;4.95;3.85;;;;;;;-142.25;100.00;58004.16;5051961;28;20072;-58
2021/09/10 09:45:46;;;;;;;6.90;3.60;;;;;;;-142.25;100.00;58004.16;5054207;28;20039;-57
2021/09/10 09:48:12;;;;;;;5.28;4.10;;;;;;;-142.25;100.00;58004.16;5052509;28;20113;-56
2021/09/10 09:50:39;;;;;;;9.13;4.75;;;;;;;-142.25;100.00;58004.16;5052813;28;20591;-59
2021/09/10 09:53:05;;;;;;;7.97;5.60;;;;;;;-142.25;100.00;58004.16;5054034;28;20035;-60
2021/09/10 09:55:33;;;;;;;5.05;3.65;;;;;;;-142.25;100.00;58004.16;5054500;28;20037;-60
2021/09/10 09:58:00;;;;;;;7.32;3.80;;;;;;;-142.25;100.00;58004.16;5051234;28;21082;-57
2021/09/10 10:00:26;;;;;;;6.28;4.30;;;;;;;-142.25;100.00;58004.16;5054117;28;20035;-61
2021/09/10 10:02:52;;;;;;;10.15;4.32;;;;;;;-142.25;100.00;58004.16;5053316;28;20040;-60
2021/09/10 10:05:18;;;;;;;7.78;4.70;;;;;;;-142.25;100.00;58004.16;5053876;28;20068;-60
2021/09/10 10:08:01;;;;;;;8.90;4.25;;;;;;;-142.25;100.00;58004.16;5052225;28;20079;-60
2021/09/10 10:10:31;;;;;;;4.22;3.45;;;;;;;-142.25;100.00;58004.16;5052711;28;20116;-60
2021/09/10 10:12:57;;;;;;;5.32;4.18;;;;;;;-142.25;100.00;58004.16;5050025;28;20033;-60
2021/09/10 10:15:25;;;;;;;5.25;3.88;;;;;;;-142.25;100.00;58004.16;5054109;28;20040;-61
2021/09/10 10:17:52;;;;;;;9.55;3.83;;;;;;;-142.25;100.00;58004.16;5053534;28;20025;-61
2021/09/10 10:20:46;;;;;;;5.88;4.03;;;;;;;-142.25;100.00;58004.16;5051038;28;20036;-59
2021/09/10 10:23:42;;;;;;;5.13;4.00;;;;;;;-142.25;100.00;58004.16;5049989;28;20029;-61
2021/09/10 10:26:12;;;;;;;4.18;3.78;;;;;;;-142.25;100.00;58004.16;5051594;28;20094;-58
2021/09/10 10:28:47;;;;;;;5.45;3.63;;;;;;;-142.25;100.00;58004.16;5053537;28;20078;-61
2021/09/10 10:31:13;;;;;;;6.85;4.07;;;;;;;-142.25;100.00;58004.16;5053153;28;20043;-61
2021/09/10 10:33:48;;;;;;;3.80;3.55;;;;;;;-142.25;100.00;58004.16;5052232;28;20093;-62
2021/09/10 10:36:36;;;;;;;3.60;3.40;;;;;;;-142.25;100.00;58004.16;5053004;28;20486;-59
2021/09/10 10:39:08;;;;;;;7.60;4.75;;;;;;;-142.25;100.00;58004.16;5052249;28;20033;-59
2021/09/10 10:41:53;;;;;;;10.07;4.03;;;;;;;-142.25;100.00;58004.16;5054123;28;20135;-59
2021/09/10 10:44:30;;;;;;;;;;;;;;;-142.25;100.00;58004.16;5053028;28;20037;-61
2021/09/10 10:47:10;;;;;;;5.70;3.83;;;;;;;-142.25;100.00;58004.16;5052551;28;20437;-59
2021/09/10 10:49:41;;;;;;;6.82;3.70;;;;;;;-142.25;100.00;58004.16;5054094;28;20484;-60
2021/09/10 10:52:21;;;;;;;4.50;3.85;;;;;;;-142.25;100.00;58004.16;5051079;28;20045;-62
2021/09/10 10:54:46;;;;;;;8.27;4.10;;;;;;;-142.25;100.00;58004.16;5051523;28;20403;-59
2021/09/10 10:57:26;;;;;;;5.22;4.07;;;;;;;-142.25;100.00;58004.16;5052473;28;20041;-61
2021/09/10 10:59:52;;;;;;;4.00;3.53;;;;;;;-142.25;100.00;58004.16;5050542;28;20476;-59
2021/09/10 11:02:35;;;;;;;7.32;3.65;;;;;;;-142.25;100.00;58004.16;5051311;28;20334;-59
2021/09/10 11:05:06;;;;;;;5.45;3.97;;;;;;;-142.25;100.00;58004.16;5051120;28;20053;-61
2021/09/10 11:07:32;;;;;;;11.90;4.15;;;;;;;-142.25;100.00;58004.16;5052368;28;20088;-59
2021/09/10 11:10:08;;;;;;;4.20;3.80;;;;;;;-142.25;100.00;58004.16;5049767;28;20036;-61